createdAt,value
2019-02-02T00:00:56.689Z,27.67
2019-02-02T00:01:47.694Z,26.23
2019-02-02T00:02:30.980Z,27.17
2019-02-02T00:03:06.527Z,27.43
2019-02-02T00:03:40.879Z,27.23
2019-02-02T00:04:17.485Z,27.53
2019-02-02T00:04:51.348Z,27.40
2019-02-02T00:05:25.685Z,26.50
2019-02-02T00:06:00.026Z,26.77
2019-02-02T00:06:34.373Z,27.97
2019-02-02T00:07:08.734Z,27.93
2019-02-02T00:07:43.076Z,27.47
2019-02-02T00:08:17.521Z,27.87
2019-02-02T00:08:52.119Z,28.47
2019-02-02T00:09:26.704Z,27.97
2019-02-02T00:10:01.297Z,27.20
2019-02-02T00:10:35.625Z,28.63
2019-02-02T00:11:10.017Z,27.43
2019-02-02T00:11:44.696Z,28.60
2019-02-02T00:12:19.293Z,27.13
2019-02-02T00:12:53.642Z,26.93
2019-02-02T00:13:27.981Z,28.27
2019-02-02T00:14:02.857Z,27.57
2019-02-02T00:14:37.227Z,26.03
2019-02-02T00:15:11.758Z,26.33
2019-02-02T00:15:46.103Z,27.70
2019-02-02T00:16:20.451Z,27.40
2019-02-02T00:16:54.818Z,27.50
2019-02-02T00:17:29.163Z,27.23
2019-02-02T00:18:03.841Z,27.67
2019-02-02T00:18:38.200Z,27.17
2019-02-02T00:19:12.594Z,28.53
2019-02-02T00:19:46.920Z,28.23
2019-02-02T00:20:21.357Z,27.53
2019-02-02T00:20:55.941Z,27.90
2019-02-02T00:21:30.545Z,28.60
2019-02-02T00:22:06.374Z,28.80
2019-02-02T00:22:40.920Z,28.23
2019-02-02T00:23:15.255Z,27.50
2019-02-02T00:23:49.590Z,28.23
2019-02-02T00:24:24.179Z,28.60
2019-02-02T00:24:58.515Z,27.80
2019-02-02T00:25:33.148Z,27.67
2019-02-02T00:26:07.720Z,27.97
2019-02-02T00:26:42.195Z,27.33
2019-02-02T00:27:16.536Z,28.37
2019-02-02T00:27:51.123Z,27.90
2019-02-02T00:28:25.460Z,28.57
2019-02-02T00:29:00.337Z,28.70
2019-02-02T00:29:34.957Z,26.77
2019-02-02T00:30:11.161Z,29.30
2019-02-02T00:30:45.763Z,28.60
2019-02-02T00:31:20.365Z,28.37
2019-02-02T00:31:54.777Z,29.30
2019-02-02T00:32:29.130Z,28.70
2019-02-02T00:33:03.498Z,29.60
2019-02-02T00:33:37.841Z,27.90
2019-02-02T00:34:12.194Z,30.10
2019-02-02T00:34:46.528Z,30.03
2019-02-02T00:35:21.062Z,30.63
2019-02-02T00:35:55.404Z,29.10
2019-02-02T00:36:29.730Z,29.57
2019-02-02T00:37:04.387Z,30.07
2019-02-02T00:37:38.734Z,29.77
2019-02-02T00:38:13.114Z,29.80
2019-02-02T00:38:47.425Z,30.07
2019-02-02T00:39:21.769Z,30.83
2019-02-02T00:39:56.144Z,30.40
2019-02-02T00:40:30.736Z,29.97
2019-02-02T00:41:05.664Z,30.33
2019-02-02T00:41:40.004Z,29.50
2019-02-02T00:42:14.664Z,30.43
2019-02-02T00:42:48.982Z,28.83
2019-02-02T00:43:23.318Z,30.10
2019-02-02T00:43:57.651Z,29.10
2019-02-02T00:44:32.247Z,29.40
2019-02-02T00:45:07.717Z,29.40
2019-02-02T00:45:42.065Z,29.00
2019-02-02T00:46:16.647Z,28.73
2019-02-02T00:46:51.276Z,30.03
2019-02-02T00:47:25.605Z,28.60
2019-02-02T00:48:00.196Z,28.63
2019-02-02T00:48:34.513Z,29.83
2019-02-02T00:49:08.849Z,28.80
2019-02-02T00:49:43.216Z,30.57
2019-02-02T00:50:18.346Z,30.20
2019-02-02T00:50:52.654Z,29.37
2019-02-02T00:51:26.988Z,30.17
2019-02-02T00:52:01.346Z,30.77
2019-02-02T00:52:35.957Z,28.93
2019-02-02T00:53:10.295Z,28.23
2019-02-02T00:53:44.668Z,30.50
2019-02-02T00:54:19.593Z,29.47
2019-02-02T00:54:53.918Z,28.97
2019-02-02T00:55:28.256Z,29.17
2019-02-02T00:56:02.566Z,28.57
2019-02-02T00:56:37.193Z,27.87
2019-02-02T00:57:11.541Z,29.23
2019-02-02T00:57:53.545Z,29.37
2019-02-02T00:58:22.661Z,29.87
2019-02-02T00:58:56.996Z,31.60
2019-02-02T00:59:31.460Z,31.53
2019-02-02T01:00:08.375Z,30.90
2019-02-02T01:00:43.076Z,31.00
2019-02-02T01:01:17.888Z,30.83
2019-02-02T01:01:52.547Z,29.87
2019-02-02T01:02:27.193Z,28.97
2019-02-02T01:03:01.524Z,29.23
2019-02-02T01:03:36.104Z,28.63
2019-02-02T01:04:11.123Z,28.93
2019-02-02T01:04:45.919Z,29.30
2019-02-02T01:05:20.670Z,29.67
2019-02-02T01:05:55.298Z,29.57
2019-02-02T01:06:29.822Z,30.73
2019-02-02T01:07:05.386Z,30.33
2019-02-02T01:07:40.284Z,30.57
2019-02-02T01:08:14.631Z,28.77
2019-02-02T01:08:50.965Z,29.60
2019-02-02T01:09:26.769Z,29.80
2019-02-02T01:10:01.132Z,30.10
2019-02-02T01:10:36.407Z,31.00
2019-02-02T01:11:10.761Z,29.60
2019-02-02T01:11:45.123Z,29.93
2019-02-02T01:12:19.529Z,28.03
2019-02-02T01:12:53.971Z,29.20
2019-02-02T01:13:28.418Z,28.80
2019-02-02T01:14:03.486Z,28.97
2019-02-02T01:14:37.970Z,28.50
2019-02-02T01:15:12.531Z,27.60
2019-02-02T01:15:46.860Z,28.37
2019-02-02T01:16:21.181Z,27.90
2019-02-02T01:16:55.544Z,28.07
2019-02-02T01:17:29.923Z,28.80
2019-02-02T01:18:04.750Z,28.43
2019-02-02T01:18:39.127Z,27.73
2019-02-02T01:19:13.486Z,27.93
2019-02-02T01:19:47.827Z,28.67
2019-02-02T01:20:22.479Z,27.93
2019-02-02T01:20:57.072Z,27.37
2019-02-02T01:21:31.464Z,27.23
2019-02-02T01:22:06.436Z,28.20
2019-02-02T01:22:40.895Z,28.97
2019-02-02T01:23:15.263Z,29.13
2019-02-02T01:23:49.597Z,28.97
2019-02-02T01:24:23.941Z,30.00
2019-02-02T01:24:58.291Z,29.67
2019-02-02T01:25:33.319Z,28.50
2019-02-02T01:26:07.856Z,29.33
2019-02-02T01:26:42.269Z,29.27
2019-02-02T01:27:16.717Z,28.93
2019-02-02T01:27:51.073Z,30.10
2019-02-02T01:28:25.398Z,28.60
2019-02-02T01:28:59.747Z,30.90
2019-02-02T01:29:34.196Z,31.13
2019-02-02T01:30:10.742Z,30.87
2019-02-02T01:30:45.347Z,28.73
2019-02-02T01:31:19.677Z,29.77
2019-02-02T01:31:54.347Z,28.87
2019-02-02T01:32:28.980Z,29.70
2019-02-02T01:33:03.326Z,28.30
2019-02-02T01:33:38.145Z,27.63
2019-02-02T01:34:12.768Z,28.57
2019-02-02T01:34:47.113Z,29.30
2019-02-02T01:35:21.801Z,28.93
2019-02-02T01:35:56.361Z,29.07
2019-02-02T01:36:30.730Z,27.83
2019-02-02T01:37:05.094Z,28.60
2019-02-02T01:37:39.577Z,28.57
2019-02-02T01:38:14.197Z,28.63
2019-02-02T01:38:48.547Z,28.97
2019-02-02T01:39:22.866Z,28.30
2019-02-02T01:39:57.201Z,29.27
2019-02-02T01:40:31.598Z,29.07
2019-02-02T01:41:06.090Z,28.93
2019-02-02T01:41:40.846Z,28.67
2019-02-02T01:42:15.197Z,29.93
2019-02-02T01:42:49.640Z,28.97
2019-02-02T01:43:24.716Z,29.60
2019-02-02T01:43:59.040Z,30.73
2019-02-02T01:44:33.748Z,29.50
2019-02-02T01:45:10.670Z,27.87
2019-02-02T01:45:45.050Z,28.93
2019-02-02T01:46:19.405Z,28.53
2019-02-02T01:46:53.752Z,28.90
2019-02-02T01:47:28.135Z,28.77
2019-02-02T01:48:02.788Z,28.50
2019-02-02T01:48:37.274Z,28.77
2019-02-02T01:49:11.691Z,28.43
2019-02-02T01:49:46.320Z,27.90
2019-02-02T01:50:22.470Z,29.13
2019-02-02T01:50:57.087Z,28.83
2019-02-02T01:51:31.445Z,27.93
2019-02-02T01:52:05.829Z,28.50
2019-02-02T01:52:41.157Z,29.53
2019-02-02T01:53:15.487Z,28.03
2019-02-02T01:53:49.883Z,30.23
2019-02-02T01:54:24.204Z,30.37
2019-02-02T01:54:58.792Z,28.77
2019-02-02T01:55:33.242Z,29.77
2019-02-02T01:56:08.031Z,29.70
2019-02-02T01:56:42.662Z,29.00
2019-02-02T01:57:17.275Z,28.97
2019-02-02T01:57:51.748Z,28.60
2019-02-02T01:58:26.092Z,30.67
2019-02-02T01:59:00.426Z,30.07
2019-02-02T01:59:34.811Z,29.40
2019-02-02T02:00:12.365Z,29.13
2019-02-02T02:00:47.028Z,29.40
2019-02-02T02:01:21.381Z,30.63
2019-02-02T02:01:55.763Z,28.87
2019-02-02T02:02:30.104Z,30.67
2019-02-02T02:03:04.532Z,29.83
2019-02-02T02:03:39.210Z,30.23
2019-02-02T02:04:13.550Z,29.47
2019-02-02T02:04:47.998Z,30.60
2019-02-02T02:05:22.386Z,29.23
2019-02-02T02:05:56.726Z,30.20
2019-02-02T02:06:31.072Z,29.80
2019-02-02T02:07:05.759Z,29.07
2019-02-02T02:07:40.449Z,30.50
2019-02-02T02:08:14.785Z,28.50
2019-02-02T02:08:49.127Z,29.43
2019-02-02T02:09:23.531Z,30.10
2019-02-02T02:09:57.869Z,28.90
2019-02-02T02:10:32.213Z,28.37
2019-02-02T02:11:06.994Z,30.13
2019-02-02T02:11:41.465Z,30.03
2019-02-02T02:12:15.835Z,29.17
2019-02-02T02:12:50.425Z,29.70
2019-02-02T02:13:24.763Z,29.67
2019-02-02T02:13:59.371Z,29.70
2019-02-02T02:14:33.881Z,28.70
2019-02-02T02:15:10.042Z,28.97
2019-02-02T02:15:44.374Z,28.90
2019-02-02T02:16:18.708Z,30.23
2019-02-02T02:16:53.049Z,28.37
2019-02-02T02:17:27.385Z,30.20
2019-02-02T02:18:02.134Z,29.33
2019-02-02T02:18:36.862Z,28.13
2019-02-02T02:19:11.583Z,30.10
2019-02-02T02:19:46.176Z,28.17
2019-02-02T02:20:22.282Z,29.20
2019-02-02T02:20:56.844Z,28.93
2019-02-02T02:21:31.248Z,28.63
2019-02-02T02:22:06.005Z,28.93
2019-02-02T02:22:41.522Z,27.80
2019-02-02T02:23:16.218Z,27.80
2019-02-02T02:23:50.559Z,28.60
2019-02-02T02:24:25.172Z,27.97
2019-02-02T02:24:59.503Z,28.70
2019-02-02T02:25:34.412Z,28.03
2019-02-02T02:26:08.933Z,28.67
2019-02-02T02:26:43.310Z,29.40
2019-02-02T02:27:17.995Z,27.90
2019-02-02T02:27:52.349Z,27.63
2019-02-02T02:28:28.430Z,29.07
2019-02-02T02:29:02.865Z,30.60
2019-02-02T02:29:37.559Z,29.57
2019-02-02T02:30:18.110Z,27.87
2019-02-02T02:30:52.434Z,29.70
2019-02-02T02:31:27.190Z,30.03
2019-02-02T02:32:01.630Z,30.23
2019-02-02T02:32:36.113Z,30.33
2019-02-02T02:33:10.571Z,31.67
2019-02-02T02:33:45.201Z,31.93
2019-02-02T02:34:20.113Z,30.97
2019-02-02T02:34:54.487Z,29.73
2019-02-02T02:35:28.961Z,30.70
2019-02-02T02:36:03.382Z,29.60
2019-02-02T02:36:37.853Z,29.23
2019-02-02T02:37:12.252Z,31.43
2019-02-02T02:37:47.026Z,29.73
2019-02-02T02:38:21.390Z,29.83
2019-02-02T02:38:55.764Z,29.70
2019-02-02T02:39:30.133Z,30.27
2019-02-02T02:40:05.296Z,30.93
2019-02-02T02:40:39.822Z,31.73
2019-02-02T02:41:14.191Z,32.43
2019-02-02T02:41:48.882Z,33.40
2019-02-02T02:42:23.250Z,33.63
2019-02-02T02:42:57.663Z,31.93
2019-02-02T02:43:32.372Z,31.70
2019-02-02T02:44:06.778Z,32.10
2019-02-02T02:44:41.232Z,31.17
2019-02-02T02:45:15.937Z,30.00
2019-02-02T02:45:50.327Z,30.40
2019-02-02T02:46:24.729Z,31.00
2019-02-02T02:46:59.094Z,30.23
2019-02-02T02:47:33.585Z,30.27
2019-02-02T02:48:08.023Z,29.43
2019-02-02T02:48:42.749Z,31.23
2019-02-02T02:49:17.106Z,30.67
2019-02-02T02:49:51.888Z,30.77
2019-02-02T02:50:26.400Z,31.47
2019-02-02T02:51:00.797Z,31.60
2019-02-02T02:51:35.486Z,32.47
2019-02-02T02:52:09.899Z,32.47
2019-02-02T02:52:44.357Z,32.93
2019-02-02T02:53:19.019Z,32.73
2019-02-02T02:53:53.383Z,31.67
2019-02-02T02:54:27.772Z,31.53
2019-02-02T02:55:02.193Z,30.37
2019-02-02T02:55:36.742Z,31.43
2019-02-02T02:56:11.207Z,30.37
2019-02-02T02:56:45.856Z,29.93
2019-02-02T02:57:20.478Z,31.37
2019-02-02T02:57:54.892Z,32.17
2019-02-02T02:58:41.240Z,31.40
2019-02-02T02:59:05.498Z,31.83
2019-02-02T02:59:40.248Z,32.70
2019-02-02T03:00:25.786Z,30.87
2019-02-02T03:01:00.178Z,31.00
2019-02-02T03:01:34.898Z,30.67
2019-02-02T03:02:09.307Z,33.63
2019-02-02T03:02:43.963Z,31.87
2019-02-02T03:03:18.354Z,31.90
2019-02-02T03:03:52.731Z,31.97
2019-02-02T03:04:27.106Z,32.17
2019-02-02T03:05:01.630Z,32.70
2019-02-02T03:05:36.311Z,32.73
2019-02-02T03:06:10.818Z,32.33
2019-02-02T03:06:46.029Z,34.23
2019-02-02T03:07:20.716Z,33.87
2019-02-02T03:07:55.141Z,33.93
2019-02-02T03:08:29.553Z,33.17
2019-02-02T03:09:06.728Z,32.17
2019-02-02T03:09:41.197Z,33.13
2019-02-02T03:10:17.613Z,32.37
2019-02-02T03:10:52.004Z,33.57
2019-02-02T03:11:26.987Z,31.40
2019-02-02T03:12:01.409Z,31.67
2019-02-02T03:12:35.877Z,32.53
2019-02-02T03:13:10.309Z,33.07
2019-02-02T03:13:44.722Z,33.83
2019-02-02T03:14:19.322Z,32.20
2019-02-02T03:14:53.708Z,32.73
2019-02-02T03:15:28.117Z,33.37
2019-02-02T03:16:02.511Z,32.50
2019-02-02T03:16:36.931Z,33.87
2019-02-02T03:17:11.355Z,31.13
2019-02-02T03:17:45.867Z,32.03
2019-02-02T03:18:20.274Z,32.23
2019-02-02T03:18:54.653Z,32.07
2019-02-02T03:19:29.026Z,33.00
2019-02-02T03:20:03.422Z,32.20
2019-02-02T03:20:37.846Z,30.60
2019-02-02T03:21:12.261Z,31.37
2019-02-02T03:21:46.651Z,32.87
2019-02-02T03:22:21.020Z,33.43
2019-02-02T03:22:55.711Z,34.47
2019-02-02T03:23:30.370Z,32.50
2019-02-02T03:24:05.105Z,33.87
2019-02-02T03:24:39.505Z,32.30
2019-02-02T03:25:16.055Z,34.10
2019-02-02T03:25:50.410Z,30.93
2019-02-02T03:26:24.771Z,31.90
2019-02-02T03:26:59.520Z,31.90
2019-02-02T03:27:33.927Z,32.83
2019-02-02T03:28:08.568Z,33.13
2019-02-02T03:28:53.244Z,31.67
2019-02-02T03:29:19.091Z,32.33
2019-02-02T03:29:53.791Z,31.17
2019-02-02T03:30:28.260Z,32.20
2019-02-02T03:31:02.692Z,31.53
2019-02-02T03:31:37.156Z,31.07
2019-02-02T03:32:11.540Z,33.07
2019-02-02T03:32:45.916Z,30.80
2019-02-02T03:33:20.276Z,32.47
2019-02-02T03:33:54.674Z,31.40
2019-02-02T03:34:29.043Z,31.37
2019-02-02T03:35:03.476Z,31.87
2019-02-02T03:35:38.251Z,32.27
2019-02-02T03:36:12.684Z,31.43
2019-02-02T03:36:47.059Z,30.30
2019-02-02T03:37:21.431Z,31.67
2019-02-02T03:37:56.077Z,33.23
2019-02-02T03:38:30.464Z,31.30
2019-02-02T03:39:10.692Z,32.13
2019-02-02T03:39:45.084Z,30.87
2019-02-02T03:40:20.728Z,31.67
2019-02-02T03:40:55.183Z,31.50
2019-02-02T03:41:29.551Z,31.47
2019-02-02T03:42:04.084Z,30.93
2019-02-02T03:42:39.116Z,33.00
2019-02-02T03:43:13.498Z,32.47
2019-02-02T03:43:48.353Z,31.93
2019-02-02T03:44:22.809Z,31.93
2019-02-02T03:44:57.496Z,32.63
2019-02-02T03:45:32.202Z,33.37
2019-02-02T03:46:06.936Z,32.57
2019-02-02T03:46:41.373Z,33.43
2019-02-02T03:47:16.012Z,31.67
2019-02-02T03:47:51.638Z,32.63
2019-02-02T03:48:26.285Z,30.77
2019-02-02T03:49:00.964Z,30.60
2019-02-02T03:49:35.472Z,33.67
2019-02-02T03:50:11.055Z,32.73
2019-02-02T03:50:45.468Z,32.73
2019-02-02T03:51:20.082Z,32.43
2019-02-02T03:51:54.437Z,31.63
2019-02-02T03:52:28.815Z,31.90
2019-02-02T03:53:03.242Z,31.80
2019-02-02T03:53:41.012Z,31.63
2019-02-02T03:54:13.864Z,33.30
2019-02-02T03:54:48.253Z,31.37
2019-02-02T03:55:22.721Z,32.77
2019-02-02T03:55:57.406Z,32.37
2019-02-02T03:56:31.815Z,31.00
2019-02-02T03:57:06.221Z,31.47
2019-02-02T03:57:40.722Z,32.40
2019-02-02T03:58:15.096Z,34.03
2019-02-02T03:58:49.773Z,32.80
2019-02-02T03:59:24.157Z,33.77
2019-02-02T03:59:58.912Z,33.17
2019-02-02T04:00:33.330Z,33.80
2019-02-02T04:01:07.810Z,32.13
2019-02-02T04:01:42.237Z,32.07
2019-02-02T04:02:16.648Z,33.17
2019-02-02T04:02:51.027Z,32.40
2019-02-02T04:03:25.978Z,31.03
2019-02-02T04:04:00.703Z,33.00
2019-02-02T04:04:35.469Z,32.97
2019-02-02T04:05:12.955Z,32.50
2019-02-02T04:05:47.372Z,31.07
2019-02-02T04:06:21.719Z,33.40
2019-02-02T04:06:56.111Z,33.07
2019-02-02T04:07:30.734Z,32.10
2019-02-02T04:08:05.122Z,32.50
2019-02-02T04:08:39.550Z,31.83
2019-02-02T04:09:13.976Z,32.53
2019-02-02T04:09:48.287Z,31.73
2019-02-02T04:10:22.737Z,32.17
2019-02-02T04:10:57.090Z,32.77
2019-02-02T04:11:31.430Z,29.90
2019-02-02T04:12:05.969Z,31.93
2019-02-02T04:12:40.845Z,31.10
2019-02-02T04:13:15.329Z,31.70
2019-02-02T04:13:49.782Z,31.77
2019-02-02T04:14:24.136Z,32.63
2019-02-02T04:14:58.473Z,33.33
2019-02-02T04:15:33.027Z,34.23
2019-02-02T04:16:07.654Z,33.00
2019-02-02T04:16:42.118Z,33.50
2019-02-02T04:17:16.773Z,32.70
2019-02-02T04:17:51.464Z,33.20
2019-02-02T04:18:25.883Z,33.57
2019-02-02T04:19:00.238Z,34.27
2019-02-02T04:19:34.648Z,33.53
2019-02-02T04:20:12.123Z,32.73
2019-02-02T04:20:46.782Z,32.20
2019-02-02T04:21:21.378Z,33.47
2019-02-02T04:21:55.716Z,32.63
2019-02-02T04:22:30.058Z,32.67
2019-02-02T04:23:04.754Z,32.97
2019-02-02T04:23:39.231Z,30.83
2019-02-02T04:24:13.700Z,32.17
2019-02-02T04:24:48.109Z,31.43
2019-02-02T04:25:23.357Z,32.10
2019-02-02T04:25:59.336Z,32.77
2019-02-02T04:26:33.958Z,30.83
2019-02-02T04:27:08.376Z,33.03
2019-02-02T04:27:43.039Z,32.53
2019-02-02T04:28:17.363Z,32.80
2019-02-02T04:28:51.725Z,33.00
2019-02-02T04:29:26.080Z,32.73
2019-02-02T04:30:00.486Z,33.60
2019-02-02T04:30:34.858Z,33.40
2019-02-02T04:31:09.888Z,34.33
2019-02-02T04:31:44.210Z,33.23
2019-02-02T04:32:18.627Z,32.90
2019-02-02T04:32:52.951Z,32.30
2019-02-02T04:33:27.561Z,33.10
2019-02-02T04:34:01.967Z,32.43
2019-02-02T04:34:36.321Z,32.97
2019-02-02T04:35:11.321Z,32.77
2019-02-02T04:35:45.946Z,32.30
2019-02-02T04:36:20.301Z,32.17
2019-02-02T04:36:54.661Z,31.90
2019-02-02T04:37:29.011Z,30.53
2019-02-02T04:38:03.699Z,31.70
2019-02-02T04:38:38.209Z,31.80
2019-02-02T04:39:12.930Z,31.47
2019-02-02T04:39:47.612Z,32.67
2019-02-02T04:40:22.035Z,31.43
2019-02-02T04:40:56.362Z,31.93
2019-02-02T04:41:30.696Z,31.10
2019-02-02T04:42:05.159Z,30.80
2019-02-02T04:42:39.581Z,32.67
2019-02-02T04:43:14.315Z,32.60
2019-02-02T04:43:48.653Z,33.33
2019-02-02T04:44:23.021Z,34.37
2019-02-02T04:44:57.700Z,33.60
2019-02-02T04:45:32.378Z,32.37
2019-02-02T04:46:07.010Z,31.47
2019-02-02T04:46:41.704Z,31.97
2019-02-02T04:47:16.071Z,33.30
2019-02-02T04:47:50.743Z,34.13
2019-02-02T04:48:25.118Z,32.57
2019-02-02T04:48:59.466Z,31.73
2019-02-02T04:49:34.197Z,32.57
2019-02-02T04:50:10.988Z,31.70
2019-02-02T04:50:45.333Z,30.33
2019-02-02T04:51:19.671Z,29.90
2019-02-02T04:51:54.021Z,30.77
2019-02-02T04:52:28.386Z,29.97
2019-02-02T04:53:03.024Z,31.60
2019-02-02T04:53:37.513Z,30.50
2019-02-02T04:54:12.013Z,29.50
2019-02-02T04:54:46.376Z,32.67
2019-02-02T04:55:21.012Z,32.80
2019-02-02T04:55:55.673Z,32.53
2019-02-02T04:56:29.952Z,32.83
2019-02-02T04:57:04.411Z,32.97
2019-02-02T04:57:38.948Z,32.70
2019-02-02T04:58:13.624Z,32.33
2019-02-02T04:58:48.243Z,34.10
2019-02-02T04:59:29.334Z,34.30
2019-02-02T04:59:58.958Z,33.23
2019-02-02T05:00:33.374Z,31.80
2019-02-02T05:01:07.754Z,32.60
2019-02-02T05:01:42.222Z,33.90
2019-02-02T05:02:16.568Z,33.07
2019-02-02T05:02:50.912Z,32.80
2019-02-02T05:03:25.279Z,34.47
2019-02-02T05:03:59.620Z,34.57
2019-02-02T05:04:34.403Z,33.10
2019-02-02T05:05:10.811Z,32.20
2019-02-02T05:05:45.164Z,31.10
2019-02-02T05:06:19.498Z,33.10
2019-02-02T05:06:53.845Z,34.07
2019-02-02T05:07:28.189Z,33.33
2019-02-02T05:08:02.868Z,33.83
2019-02-02T05:08:37.563Z,32.60
2019-02-02T05:09:11.967Z,35.37
2019-02-02T05:09:46.914Z,32.97
2019-02-02T05:10:23.463Z,33.90
2019-02-02T05:10:57.889Z,33.90
2019-02-02T05:11:32.399Z,34.63
2019-02-02T05:12:06.825Z,37.63
2019-02-02T05:12:41.256Z,34.37
2019-02-02T05:13:15.879Z,35.67
2019-02-02T05:13:50.241Z,34.17
2019-02-02T05:14:24.879Z,34.97
2019-02-02T05:14:59.225Z,35.40
2019-02-02T05:15:33.678Z,35.07
2019-02-02T05:16:08.060Z,35.87
2019-02-02T05:16:42.486Z,35.90
2019-02-02T05:17:16.815Z,36.63
2019-02-02T05:17:51.159Z,35.93
2019-02-02T05:18:25.501Z,35.90
2019-02-02T05:18:59.841Z,36.47
2019-02-02T05:19:34.284Z,35.53
2019-02-02T05:20:09.944Z,35.63
2019-02-02T05:20:44.303Z,35.93
2019-02-02T05:21:18.635Z,34.90
2019-02-02T05:21:53.431Z,35.13
2019-02-02T05:22:28.085Z,34.60
2019-02-02T05:23:02.475Z,34.67
2019-02-02T05:23:36.872Z,36.40
2019-02-02T05:24:11.308Z,34.33
2019-02-02T05:24:45.748Z,36.10
2019-02-02T05:25:20.094Z,35.07
2019-02-02T05:25:54.417Z,35.57
2019-02-02T05:26:28.770Z,35.37
2019-02-02T05:27:03.187Z,34.63
2019-02-02T05:27:37.573Z,36.57
2019-02-02T05:28:11.965Z,35.47
2019-02-02T05:28:46.334Z,35.67
2019-02-02T05:29:20.696Z,37.30
2019-02-02T05:29:55.082Z,37.10
2019-02-02T05:30:30.504Z,33.00
2019-02-02T05:31:04.921Z,34.63
2019-02-02T05:31:39.328Z,33.83
2019-02-02T05:32:13.984Z,35.67
2019-02-02T05:32:48.683Z,36.50
2019-02-02T05:33:23.050Z,35.23
2019-02-02T05:33:57.693Z,36.30
2019-02-02T05:34:32.457Z,36.50
2019-02-02T05:35:07.423Z,36.97
2019-02-02T05:35:41.803Z,37.37
2019-02-02T05:36:16.165Z,36.67
2019-02-02T05:36:50.502Z,36.57
2019-02-02T05:37:24.862Z,36.97
2019-02-02T05:37:59.387Z,36.50
2019-02-02T05:38:34.211Z,35.73
2019-02-02T05:39:09.603Z,35.43
2019-02-02T05:39:44.255Z,35.97
2019-02-02T05:40:19.377Z,35.47
2019-02-02T05:40:53.974Z,37.93
2019-02-02T05:41:28.367Z,35.43
2019-02-02T05:42:02.969Z,36.13
2019-02-02T05:42:37.715Z,37.67
2019-02-02T05:43:12.135Z,38.67
2019-02-02T05:43:46.513Z,37.27
2019-02-02T05:44:20.854Z,39.47
2019-02-02T05:44:55.481Z,39.83
2019-02-02T05:45:29.857Z,38.03
2019-02-02T05:46:04.405Z,39.07
2019-02-02T05:46:39.064Z,39.37
2019-02-02T05:47:13.726Z,40.00
2019-02-02T05:47:48.165Z,43.10
2019-02-02T05:48:22.509Z,40.67
2019-02-02T05:48:56.852Z,40.73
2019-02-02T05:49:31.509Z,40.17
2019-02-02T05:50:07.151Z,40.93
2019-02-02T05:50:41.835Z,36.47
2019-02-02T05:51:16.202Z,35.57
2019-02-02T05:51:50.568Z,39.00
2019-02-02T05:52:24.957Z,38.63
2019-02-02T05:52:59.600Z,37.97
2019-02-02T05:53:36.387Z,36.77
2019-02-02T05:54:11.099Z,37.90
2019-02-02T05:54:45.733Z,39.47
2019-02-02T05:55:20.347Z,38.43
2019-02-02T05:55:55.013Z,39.80
2019-02-02T05:56:29.385Z,37.67
2019-02-02T05:57:03.848Z,36.80
2019-02-02T05:57:38.387Z,38.67
2019-02-02T05:58:12.821Z,37.67
2019-02-02T05:58:47.159Z,38.60
2019-02-02T05:59:21.520Z,37.00
2019-02-02T05:59:55.851Z,38.93
2019-02-02T06:00:40.872Z,36.90
2019-02-02T06:01:18.644Z,38.27
2019-02-02T06:01:52.972Z,39.00
2019-02-02T06:02:27.382Z,39.00
2019-02-02T06:03:01.765Z,39.53
2019-02-02T06:03:36.372Z,38.73
2019-02-02T06:04:10.753Z,37.50
2019-02-02T06:04:45.187Z,37.63
2019-02-02T06:05:19.522Z,37.97
2019-02-02T06:05:54.001Z,35.67
2019-02-02T06:06:28.284Z,38.50
2019-02-02T06:07:02.815Z,38.47
2019-02-02T06:07:37.352Z,39.60
2019-02-02T06:08:11.876Z,38.13
2019-02-02T06:08:46.530Z,37.63
2019-02-02T06:09:22.910Z,37.80
2019-02-02T06:09:57.513Z,38.10
2019-02-02T06:10:31.896Z,40.73
2019-02-02T06:11:06.678Z,36.90
2019-02-02T06:11:41.084Z,34.90
2019-02-02T06:12:15.464Z,36.93
2019-02-02T06:12:49.902Z,35.47
2019-02-02T06:13:24.520Z,32.93
2019-02-02T06:13:58.865Z,34.60
2019-02-02T06:14:33.577Z,33.90
2019-02-02T06:15:08.704Z,34.97
2019-02-02T06:15:43.342Z,34.60
2019-02-02T06:16:17.968Z,35.87
2019-02-02T06:16:52.587Z,36.87
2019-02-02T06:17:26.916Z,38.13
2019-02-02T06:18:01.608Z,37.33
2019-02-02T06:18:36.629Z,37.43
2019-02-02T06:19:11.198Z,38.07
2019-02-02T06:19:45.619Z,38.37
2019-02-02T06:20:19.950Z,38.77
2019-02-02T06:20:54.269Z,37.57
2019-02-02T06:21:28.652Z,37.60
2019-02-02T06:22:03.323Z,37.20
2019-02-02T06:22:37.728Z,35.90
2019-02-02T06:23:12.260Z,34.20
2019-02-02T06:23:46.726Z,35.30
2019-02-02T06:24:21.334Z,34.30
2019-02-02T06:24:56.054Z,36.53
2019-02-02T06:25:30.561Z,36.63
2019-02-02T06:26:04.945Z,37.13
2019-02-02T06:26:39.453Z,37.13
2019-02-02T06:27:13.846Z,35.77
2019-02-02T06:27:48.304Z,34.93
2019-02-02T06:28:22.663Z,33.10
2019-02-02T06:28:56.995Z,34.97
2019-02-02T06:29:31.610Z,35.47
2019-02-02T06:30:08.849Z,36.27
2019-02-02T06:30:43.219Z,35.13
2019-02-02T06:31:17.565Z,36.63
2019-02-02T06:31:51.900Z,35.73
2019-02-02T06:32:26.247Z,36.00
2019-02-02T06:33:00.629Z,36.80
2019-02-02T06:33:35.113Z,38.77
2019-02-02T06:34:09.532Z,39.47
2019-02-02T06:34:44.133Z,40.37
2019-02-02T06:35:18.498Z,39.53
2019-02-02T06:35:52.849Z,39.40
2019-02-02T06:36:27.758Z,41.03
2019-02-02T06:37:02.180Z,41.60
2019-02-02T06:37:36.581Z,41.10
2019-02-02T06:38:11.342Z,41.63
2019-02-02T06:38:45.648Z,40.97
2019-02-02T06:39:19.978Z,40.87
2019-02-02T06:39:54.364Z,38.67
2019-02-02T06:40:28.672Z,39.17
2019-02-02T06:41:03.093Z,39.87
2019-02-02T06:41:37.534Z,39.60
2019-02-02T06:42:11.942Z,41.33
2019-02-02T06:42:46.816Z,40.70
2019-02-02T06:43:21.479Z,40.43
2019-02-02T06:43:55.846Z,41.73
2019-02-02T06:44:30.204Z,39.40
2019-02-02T06:45:05.719Z,37.37
2019-02-02T06:45:40.141Z,38.23
2019-02-02T06:46:14.543Z,40.07
2019-02-02T06:46:49.184Z,39.70
2019-02-02T06:47:23.623Z,37.07
2019-02-02T06:47:58.500Z,38.30
2019-02-02T06:48:32.894Z,39.87
2019-02-02T06:49:07.423Z,38.73
2019-02-02T06:49:41.830Z,37.03
2019-02-02T06:50:16.702Z,36.10
2019-02-02T06:50:51.034Z,36.70
2019-02-02T06:51:25.423Z,38.70
2019-02-02T06:51:59.824Z,36.03
2019-02-02T06:52:34.563Z,38.57
2019-02-02T06:53:09.404Z,39.00
2019-02-02T06:53:43.781Z,36.73
2019-02-02T06:54:18.759Z,35.90
2019-02-02T06:54:53.557Z,36.40
2019-02-02T06:55:27.989Z,36.57
2019-02-02T06:56:02.352Z,37.43
2019-02-02T06:56:36.839Z,36.20
2019-02-02T06:57:11.249Z,35.63
2019-02-02T06:57:45.863Z,35.30
2019-02-02T06:58:20.230Z,36.30
2019-02-02T06:58:54.578Z,39.17
2019-02-02T06:59:28.912Z,37.07
2019-02-02T07:00:03.436Z,38.23
2019-02-02T07:00:38.055Z,40.13
2019-02-02T07:01:12.818Z,38.17
2019-02-02T07:01:47.205Z,39.13
2019-02-02T07:02:21.558Z,38.03
2019-02-02T07:02:56.227Z,39.73
2019-02-02T07:03:30.609Z,36.73
2019-02-02T07:04:05.109Z,38.40
2019-02-02T07:04:39.554Z,40.37
2019-02-02T07:05:13.885Z,38.90
2019-02-02T07:05:48.339Z,38.67
2019-02-02T07:06:23.092Z,40.37
2019-02-02T07:06:57.432Z,41.57
2019-02-02T07:07:31.802Z,40.80
2019-02-02T07:08:06.779Z,40.67
2019-02-02T07:08:41.199Z,38.93
2019-02-02T07:09:15.541Z,41.67
2019-02-02T07:09:49.875Z,39.53
2019-02-02T07:10:25.526Z,40.83
2019-02-02T07:10:59.877Z,43.53
2019-02-02T07:11:34.270Z,40.97
2019-02-02T07:12:08.771Z,40.23
2019-02-02T07:12:43.152Z,40.17
2019-02-02T07:13:17.511Z,40.70
2019-02-02T07:13:51.848Z,40.80
2019-02-02T07:14:26.424Z,43.63
2019-02-02T07:15:00.783Z,44.23
2019-02-02T07:15:35.457Z,45.07
2019-02-02T07:16:09.832Z,45.03
2019-02-02T07:16:44.452Z,45.90
2019-02-02T07:17:18.795Z,45.77
2019-02-02T07:17:53.113Z,44.17
2019-02-02T07:18:27.471Z,44.40
2019-02-02T07:19:01.933Z,44.40
2019-02-02T07:19:39.250Z,45.03
2019-02-02T07:20:14.659Z,47.00
2019-02-02T07:20:49.241Z,45.50
2019-02-02T07:21:23.638Z,44.83
2019-02-02T07:21:58.062Z,45.20
2019-02-02T07:22:32.458Z,45.53
2019-02-02T07:23:06.862Z,43.07
2019-02-02T07:23:41.269Z,43.67
2019-02-02T07:24:15.635Z,46.73
2019-02-02T07:24:50.280Z,44.43
2019-02-02T07:25:24.560Z,43.87
2019-02-02T07:25:58.913Z,44.07
2019-02-02T07:26:33.386Z,44.20
2019-02-02T07:27:07.890Z,43.83